Time;durP1;ratioP1;P1;durP2;ratioP2;P2;SDS_P1;SDS_P2;PMS_P1;PMS_P2;Temp;Humidity;BMP_temperature;BMP_pressure;BME280_temperature;BME280_humidity;BME280_pressure;Samples;Min_cycle;Max_cycle;Signal;HPM_P1;HPM_P2
2021/08/01 00:01:26;;;;;;;3.00;2.42;;;;;;;;;;5026945;28;20255;-83
2021/08/01 00:03:52;;;;;;;2.10;1.85;;;;;;;;;;5045851;28;20170;-84
2021/08/01 00:06:19;;;;;;;4.07;2.00;;;;;;;;;;5042465;28;20209;-84
2021/08/01 00:08:45;;;;;;;2.53;1.73;;;;;;;;;;5045450;28;20208;-83
2021/08/01 00:11:11;;;;;;;1.83;1.70;;;;;;;;;;5046255;28;20181;-83
2021/08/01 00:13:37;;;;;;;2.95;1.80;;;;;;;;;;5042169;28;20394;-82
2021/08/01 00:16:04;;;;;;;2.30;2.10;;;;;;;;;;5044741;28;20166;-83
2021/08/01 00:18:30;;;;;;;3.67;2.10;;;;;;;;;;5034325;28;20249;-83
2021/08/01 00:20:56;;;;;;;2.90;2.10;;;;;;;;;;5035350;28;20178;-83
2021/08/01 00:23:22;;;;;;;4.15;2.85;;;;;;;;;;5043426;28;20432;-83
2021/08/01 00:25:48;;;;;;;7.28;2.25;;;;;;;;;;5027138;28;20494;-83
2021/08/01 00:28:14;;;;;;;1.90;1.80;;;;;;;;;;5028888;28;20673;-83
2021/08/01 00:30:40;;;;;;;4.93;2.13;;;;;;;;;;5044905;28;20249;-83
2021/08/01 00:33:06;;;;;;;2.20;2.00;;;;;;;;;;5042651;28;20190;-83
2021/08/01 00:35:32;;;;;;;3.13;2.70;;;;;;;;;;5041464;28;20437;-83
2021/08/01 00:37:58;;;;;;;3.13;2.23;;;;;;;;;;5052425;28;20431;-83
2021/08/01 00:40:24;;;;;;;4.10;2.30;;;;;;;;;;5032794;28;20432;-83
2021/08/01 00:42:50;;;;;;;3.30;2.40;;;;;;;;;;5038058;28;20424;-83
2021/08/01 00:45:16;;;;;;;6.63;2.08;;;;;;;;;;5045140;28;20204;-83
2021/08/01 00:47:43;;;;;;;7.20;2.20;;;;;;;;;;5050567;28;20873;-83
2021/08/01 00:50:10;;;;;;;4.13;2.40;;;;;;;;;;5048954;28;20339;-84
2021/08/01 00:52:36;;;;;;;3.47;2.35;;;;;;;;;;5050002;28;20177;-83
2021/08/01 00:55:06;;;;;;;3.70;2.13;;;;;;;;;;5043538;28;20504;-84
2021/08/01 00:57:32;;;;;;;1.83;1.70;;;;;;;;;;5037877;28;20197;-83
2021/08/01 00:59:58;;;;;;;3.63;2.10;;;;;;;;;;5039001;28;20189;-83
2021/08/01 01:02:33;;;;;;;2.47;2.28;;;;;;;;;;5040569;28;20437;-83
2021/08/01 01:05:03;;;;;;;2.58;2.15;;;;;;;;;;5050194;28;20193;-83
2021/08/01 01:07:55;;;;;;;3.47;2.10;;;;;;;;;;5048396;28;20228;-82
2021/08/01 01:10:21;;;;;;;3.95;2.38;;;;;;;;;;5044080;28;20253;-80
2021/08/01 01:12:52;;;;;;;3.73;2.77;;;;;;;;;;5029378;28;20181;-82
2021/08/01 01:15:26;;;;;;;2.45;2.03;;;;;;;;;;5037278;28;20435;-82
2021/08/01 01:17:53;;;;;;;2.70;2.35;;;;;;;;;;5020913;28;20229;-83
2021/08/01 01:20:22;;;;;;;2.70;1.92;;;;;;;;;;5043601;28;20312;-82
2021/08/01 01:22:51;;;;;;;2.42;2.15;;;;;;;;;;5044361;28;20968;-84
2021/08/01 01:25:27;;;;;;;2.88;2.42;;;;;;;;;;5028719;28;20655;-83
2021/08/01 01:28:02;;;;;;;2.47;2.28;;;;;;;;;;5029646;28;20248;-83
2021/08/01 01:30:30;;;;;;;5.57;2.50;;;;;;;;;;5027596;28;20228;-84
2021/08/01 01:33:05;;;;;;;4.80;2.00;;;;;;;;;;5040504;28;20277;-84
2021/08/01 01:35:36;;;;;;;3.25;2.95;;;;;;;;;;4999785;28;20186;-84
2021/08/01 01:38:02;;;;;;;2.72;2.10;;;;;;;;;;4999127;28;20179;-83
2021/08/01 01:40:28;;;;;;;2.78;1.83;;;;;;;;;;5027972;28;20191;-83
2021/08/01 01:42:55;;;;;;;4.72;2.70;;;;;;;;;;5000476;28;20180;-83
2021/08/01 01:45:22;;;;;;;3.53;2.15;;;;;;;;;;4996507;28;20631;-82
2021/08/01 01:47:51;;;;;;;4.32;2.42;;;;;;;;;;5024980;28;20257;-83
2021/08/01 01:50:18;;;;;;;4.15;1.85;;;;;;;;;;5035225;28;20331;-83
2021/08/01 01:52:47;;;;;;;2.63;2.42;;;;;;;;;;5046109;28;20199;-83
2021/08/01 01:55:14;;;;;;;3.15;2.10;;;;;;;;;;5026911;28;20176;-83
2021/08/01 01:57:40;;;;;;;3.05;2.30;;;;;;;;;;5035556;28;20199;-83
2021/08/01 02:00:06;;;;;;;5.90;2.40;;;;;;;;;;5036224;28;20193;-83
2021/08/01 02:02:32;;;;;;;2.92;2.40;;;;;;;;;;5036816;28;20185;-83
2021/08/01 02:04:58;;;;;;;3.20;1.95;;;;;;;;;;5031132;28;20215;-83
2021/08/01 02:07:24;;;;;;;2.35;2.13;;;;;;;;;;5030338;28;20205;-83
2021/08/01 02:09:50;;;;;;;2.63;2.40;;;;;;;;;;5036614;28;20546;-83
2021/08/01 02:12:24;;;;;;;4.60;2.10;;;;;;;;;;5039712;28;20177;-83
2021/08/01 02:14:50;;;;;;;3.55;2.50;;;;;;;;;;5042671;28;20452;-83
2021/08/01 02:17:20;;;;;;;2.22;2.03;;;;;;;;;;5034213;28;20244;-84
2021/08/01 02:19:48;;;;;;;2.80;2.30;;;;;;;;;;5028687;28;20197;-84
2021/08/01 02:22:14;;;;;;;3.67;2.65;;;;;;;;;;5029753;28;20202;-84
2021/08/01 02:24:41;;;;;;;3.70;2.30;;;;;;;;;;5044159;28;20281;-83
2021/08/01 02:27:08;;;;;;;2.58;2.10;;;;;;;;;;5046434;28;20212;-84
2021/08/01 02:29:34;;;;;;;4.10;2.90;;;;;;;;;;5047563;28;20178;-84
2021/08/01 02:32:00;;;;;;;2.75;2.40;;;;;;;;;;5044393;28;20185;-82
2021/08/01 02:34:27;;;;;;;2.45;2.25;;;;;;;;;;5027747;28;20181;-82
2021/08/01 02:36:53;;;;;;;3.10;2.50;;;;;;;;;;5033336;28;20233;-83
2021/08/01 02:39:20;;;;;;;2.53;2.33;;;;;;;;;;5035625;28;20192;-83
2021/08/01 02:41:46;;;;;;;4.22;2.33;;;;;;;;;;5035823;28;20190;-83
2021/08/01 02:44:14;;;;;;;3.65;2.38;;;;;;;;;;5032536;28;20211;-83
2021/08/01 02:46:41;;;;;;;2.90;2.50;;;;;;;;;;5045063;28;20207;-83
2021/08/01 02:49:10;;;;;;;2.70;2.50;;;;;;;;;;5047320;28;20233;-83
2021/08/01 02:51:36;;;;;;;2.75;2.53;;;;;;;;;;5045301;28;20276;-83
2021/08/01 02:54:03;;;;;;;3.33;2.60;;;;;;;;;;5040593;28;20228;-84
2021/08/01 02:56:31;;;;;;;4.05;1.92;;;;;;;;;;5046189;28;20647;-82
2021/08/01 02:58:57;;;;;;;2.60;2.20;;;;;;;;;;5046371;28;20189;-83
2021/08/01 03:01:24;;;;;;;4.82;2.70;;;;;;;;;;5043757;28;20181;-83
2021/08/01 03:03:50;;;;;;;3.88;2.42;;;;;;;;;;5046000;28;20180;-82
2021/08/01 03:06:17;;;;;;;3.38;2.15;;;;;;;;;;5036769;28;20197;-82
2021/08/01 03:08:43;;;;;;;2.72;2.40;;;;;;;;;;5034498;28;20181;-83
2021/08/01 03:11:12;;;;;;;5.63;2.40;;;;;;;;;;5029752;28;20477;-83
2021/08/01 03:13:39;;;;;;;4.68;2.45;;;;;;;;;;5026968;28;20245;-83
2021/08/01 03:16:05;;;;;;;2.65;2.45;;;;;;;;;;5045021;28;20200;-83
2021/08/01 03:18:31;;;;;;;2.95;2.13;;;;;;;;;;5036170;28;20225;-83
2021/08/01 03:20:57;;;;;;;3.13;1.90;;;;;;;;;;5039720;28;20185;-83
2021/08/01 03:23:23;;;;;;;4.00;1.85;;;;;;;;;;5043896;28;20509;-83
2021/08/01 03:25:49;;;;;;;2.70;2.50;;;;;;;;;;5045304;28;20256;-82
2021/08/01 03:28:15;;;;;;;2.28;2.17;;;;;;;;;;5030211;28;20210;-83
2021/08/01 03:30:41;;;;;;;2.70;2.30;;;;;;;;;;5044897;28;20245;-84
2021/08/01 03:33:07;;;;;;;4.63;2.47;;;;;;;;;;5038902;28;20441;-83
2021/08/01 03:35:33;;;;;;;4.07;2.00;;;;;;;;;;5033492;28;20470;-83
2021/08/01 03:37:59;;;;;;;3.15;2.20;;;;;;;;;;5044842;28;20922;-83
2021/08/01 03:40:25;;;;;;;3.60;2.30;;;;;;;;;;5043874;28;20185;-83
2021/08/01 03:42:51;;;;;;;3.13;2.20;;;;;;;;;;5047827;28;20420;-83
2021/08/01 03:45:17;;;;;;;4.03;2.33;;;;;;;;;;5034621;28;20247;-84
2021/08/01 03:47:43;;;;;;;3.00;2.10;;;;;;;;;;5035838;28;20206;-84
2021/08/01 03:50:09;;;;;;;3.10;2.00;;;;;;;;;;5042265;28;20447;-84
2021/08/01 03:52:35;;;;;;;4.60;2.55;;;;;;;;;;5042259;28;20413;-84
2021/08/01 03:55:01;;;;;;;4.25;2.25;;;;;;;;;;5032470;28;20231;-83
2021/08/01 03:57:27;;;;;;;2.65;2.45;;;;;;;;;;5040838;28;20192;-84
2021/08/01 03:59:53;;;;;;;4.37;2.20;;;;;;;;;;5039307;28;20235;-84
2021/08/01 04:02:19;;;;;;;2.30;2.00;;;;;;;;;;5034221;28;20845;-84
2021/08/01 04:04:45;;;;;;;2.78;2.53;;;;;;;;;;5043435;28;20216;-84
2021/08/01 04:07:11;;;;;;;3.75;1.83;;;;;;;;;;5044537;28;20233;-84
2021/08/01 04:09:37;;;;;;;2.30;2.10;;;;;;;;;;5035920;28;20198;-83
2021/08/01 04:12:03;;;;;;;2.25;1.83;;;;;;;;;;5033081;28;20214;-80
2021/08/01 04:14:31;;;;;;;3.30;2.38;;;;;;;;;;5034595;28;20212;-84
2021/08/01 04:16:58;;;;;;;2.80;2.10;;;;;;;;;;5045647;28;20224;-83
2021/08/01 04:19:24;;;;;;;2.30;2.10;;;;;;;;;;5043838;28;20665;-84
2021/08/01 04:21:50;;;;;;;2.42;2.22;;;;;;;;;;5047494;28;20193;-83
2021/08/01 04:24:16;;;;;;;3.55;1.90;;;;;;;;;;5041056;28;20186;-84
2021/08/01 04:26:42;;;;;;;3.43;2.13;;;;;;;;;;5044863;28;20211;-83
2021/08/01 04:29:08;;;;;;;2.87;2.60;;;;;;;;;;5045746;28;20446;-84
2021/08/01 04:31:34;;;;;;;5.68;2.95;;;;;;;;;;5041772;28;20817;-84
2021/08/01 04:34:00;;;;;;;2.55;1.88;;;;;;;;;;5045984;28;20201;-83
2021/08/01 04:36:26;;;;;;;7.35;2.65;;;;;;;;;;5045490;28;20195;-84
2021/08/01 04:38:52;;;;;;;3.10;2.07;;;;;;;;;;5044262;28;20185;-83
2021/08/01 04:41:18;;;;;;;2.85;2.08;;;;;;;;;;5041970;28;20460;-84
2021/08/01 04:43:44;;;;;;;2.53;2.33;;;;;;;;;;5044136;28;20192;-84
2021/08/01 04:46:10;;;;;;;2.53;2.13;;;;;;;;;;5042126;28;20188;-81
2021/08/01 04:48:36;;;;;;;6.43;2.37;;;;;;;;;;5044545;28;20429;-84
2021/08/01 04:51:02;;;;;;;3.00;2.33;;;;;;;;;;5038706;28;20472;-84
2021/08/01 04:53:28;;;;;;;2.80;1.90;;;;;;;;;;5032499;28;20424;-83
2021/08/01 04:55:54;;;;;;;2.30;1.98;;;;;;;;;;5029226;28;20440;-84
2021/08/01 04:58:20;;;;;;;3.97;2.30;;;;;;;;;;5043041;28;20379;-84
2021/08/01 05:00:46;;;;;;;5.85;2.90;;;;;;;;;;5034456;28;20199;-84
2021/08/01 05:03:12;;;;;;;2.70;2.33;;;;;;;;;;5031919;28;20192;-84
2021/08/01 05:05:38;;;;;;;6.30;2.13;;;;;;;;;;5035742;28;20196;-84
2021/08/01 05:08:05;;;;;;;2.78;2.53;;;;;;;;;;5044301;28;20470;-83
2021/08/01 05:10:31;;;;;;;2.60;2.33;;;;;;;;;;5025336;28;20182;-84
2021/08/01 05:12:57;;;;;;;5.72;2.92;;;;;;;;;;5037699;28;20245;-84
2021/08/01 05:15:23;;;;;;;6.30;2.03;;;;;;;;;;5046449;28;20186;-84
2021/08/01 05:17:49;;;;;;;2.58;2.10;;;;;;;;;;5042306;28;20312;-84
2021/08/01 05:20:15;;;;;;;2.10;1.90;;;;;;;;;;5046245;28;20211;-84
2021/08/01 05:22:41;;;;;;;8.35;2.88;;;;;;;;;;5031156;28;20210;-84
2021/08/01 05:25:08;;;;;;;1.92;1.80;;;;;;;;;;5047082;28;20203;-83
2021/08/01 05:27:34;;;;;;;3.45;2.03;;;;;;;;;;5046026;28;20205;-83
2021/08/01 05:30:00;;;;;;;4.07;2.10;;;;;;;;;;5046565;28;20177;-84
2021/08/01 05:32:26;;;;;;;3.08;2.53;;;;;;;;;;5048289;28;20683;-84
2021/08/01 05:34:52;;;;;;;4.22;2.30;;;;;;;;;;5048725;28;20192;-84
2021/08/01 05:37:18;;;;;;;5.47;2.67;;;;;;;;;;5027419;28;20170;-84
2021/08/01 05:39:44;;;;;;;4.70;2.58;;;;;;;;;;5035420;28;20440;-84
2021/08/01 05:42:10;;;;;;;5.33;3.40;;;;;;;;;;5042510;28;20549;-84
2021/08/01 05:44:36;;;;;;;6.30;2.70;;;;;;;;;;5048089;28;20444;-81
2021/08/01 05:47:06;;;;;;;3.97;2.37;;;;;;;;;;5049165;28;20205;-84
2021/08/01 05:49:33;;;;;;;5.00;1.90;;;;;;;;;;5045924;28;20424;-84
2021/08/01 05:51:59;;;;;;;4.65;1.92;;;;;;;;;;5035420;28;20313;-84
2021/08/01 05:54:25;;;;;;;6.05;2.15;;;;;;;;;;5044905;28;20192;-84
2021/08/01 05:56:51;;;;;;;5.97;3.25;;;;;;;;;;5045706;28;20189;-84
2021/08/01 05:59:17;;;;;;;3.50;2.10;;;;;;;;;;5048973;28;20184;-84
2021/08/01 06:01:43;;;;;;;3.38;2.50;;;;;;;;;;5047108;28;20433;-85
2021/08/01 06:04:09;;;;;;;4.73;3.57;;;;;;;;;;5047050;28;20328;-84
2021/08/01 06:06:35;;;;;;;2.60;2.00;;;;;;;;;;5047984;28;20460;-84
2021/08/01 06:09:02;;;;;;;4.80;2.50;;;;;;;;;;5044541;28;20467;-84
2021/08/01 06:11:28;;;;;;;4.95;1.95;;;;;;;;;;5044425;28;20428;-83
2021/08/01 06:13:54;;;;;;;2.75;2.47;;;;;;;;;;5044915;28;20179;-84
2021/08/01 06:16:21;;;;;;;4.50;2.50;;;;;;;;;;5030772;28;20263;-82
2021/08/01 06:18:47;;;;;;;4.75;2.63;;;;;;;;;;5045621;28;20574;-84
2021/08/01 06:21:19;;;;;;;4.30;2.60;;;;;;;;;;5047451;28;20277;-84
2021/08/01 06:23:46;;;;;;;6.25;3.10;;;;;;;;;;5047072;28;20186;-84
2021/08/01 06:26:12;;;;;;;4.20;2.10;;;;;;;;;;5043958;28;20218;-84
2021/08/01 06:28:38;;;;;;;4.57;2.42;;;;;;;;;;5028685;28;20265;-83
2021/08/01 06:31:05;;;;;;;2.55;2.03;;;;;;;;;;5047449;28;20621;-84
2021/08/01 06:33:31;;;;;;;6.72;2.88;;;;;;;;;;5045677;28;20190;-82
2021/08/01 06:35:58;;;;;;;5.22;1.83;;;;;;;;;;5041669;28;20212;-84
2021/08/01 06:38:24;;;;;;;3.58;1.77;;;;;;;;;;5034333;28;20192;-84
2021/08/01 06:40:50;;;;;;;5.30;1.92;;;;;;;;;;5029966;28;20181;-84
2021/08/01 06:43:17;;;;;;;7.25;1.95;;;;;;;;;;5028670;28;20175;-84
2021/08/01 06:45:43;;;;;;;4.25;1.67;;;;;;;;;;5034542;28;20249;-81
2021/08/01 06:48:09;;;;;;;3.53;1.60;;;;;;;;;;5041242;28;20212;-83
2021/08/01 06:50:35;;;;;;;3.42;1.83;;;;;;;;;;5044255;28;20186;-85
2021/08/01 06:53:02;;;;;;;5.18;1.92;;;;;;;;;;5046629;28;20181;-83
2021/08/01 06:55:28;;;;;;;2.60;1.83;;;;;;;;;;5045768;28;20261;-83
2021/08/01 06:57:54;;;;;;;2.08;1.40;;;;;;;;;;5034002;28;20175;-85
2021/08/01 07:00:20;;;;;;;4.75;1.90;;;;;;;;;;5040783;28;20196;-84
2021/08/01 07:02:53;;;;;;;2.40;1.40;;;;;;;;;;5042041;28;20332;-83
2021/08/01 07:05:19;;;;;;;5.57;1.65;;;;;;;;;;5031684;28;20253;-83
2021/08/01 07:07:45;;;;;;;4.95;1.70;;;;;;;;;;5045319;28;20240;-85
2021/08/01 07:10:11;;;;;;;5.70;1.97;;;;;;;;;;5031216;28;20171;-85
2021/08/01 07:12:41;;;;;;;3.33;1.17;;;;;;;;;;5045150;28;20433;-84
2021/08/01 07:15:07;;;;;;;2.67;1.45;;;;;;;;;;5040923;28;20225;-84
2021/08/01 07:17:33;;;;;;;6.53;1.65;;;;;;;;;;5034048;28;20222;-84
2021/08/01 07:19:59;;;;;;;3.95;2.00;;;;;;;;;;5030858;28;20186;-84
2021/08/01 07:22:25;;;;;;;1.40;1.30;;;;;;;;;;5026254;28;20208;-83
2021/08/01 07:24:51;;;;;;;2.43;1.40;;;;;;;;;;5046677;28;20432;-83
2021/08/01 07:27:17;;;;;;;3.97;1.80;;;;;;;;;;5044111;28;20464;-84
2021/08/01 07:29:43;;;;;;;1.73;1.23;;;;;;;;;;5043017;28;20436;-83
2021/08/01 07:32:09;;;;;;;2.60;1.60;;;;;;;;;;5032572;28;20174;-85
2021/08/01 07:34:35;;;;;;;3.27;1.33;;;;;;;;;;5027825;28;20825;-84
2021/08/01 07:37:01;;;;;;;2.72;1.10;;;;;;;;;;5039785;28;20447;-84
2021/08/01 07:39:27;;;;;;;2.58;1.35;;;;;;;;;;5046651;28;20181;-83
2021/08/01 07:41:53;;;;;;;2.93;1.30;;;;;;;;;;5045609;28;20245;-83
2021/08/01 07:44:19;;;;;;;1.87;1.10;;;;;;;;;;5045167;28;20435;-84
2021/08/01 07:46:45;;;;;;;5.00;1.30;;;;;;;;;;5028170;28;20555;-84
2021/08/01 07:49:11;;;;;;;2.30;1.60;;;;;;;;;;5043579;28;20629;-83
2021/08/01 07:51:37;;;;;;;2.00;1.20;;;;;;;;;;5043878;28;20492;-82
2021/08/01 07:54:03;;;;;;;2.83;1.20;;;;;;;;;;5044820;28;20190;-84
2021/08/01 07:56:29;;;;;;;1.83;0.90;;;;;;;;;;5043363;28;20581;-85
2021/08/01 07:58:55;;;;;;;1.80;1.50;;;;;;;;;;5043607;28;20436;-84
2021/08/01 08:01:21;;;;;;;4.43;1.45;;;;;;;;;;5028616;28;20425;-84
2021/08/01 08:03:47;;;;;;;1.80;1.08;;;;;;;;;;5042658;28;20201;-85
2021/08/01 08:06:13;;;;;;;1.40;1.30;;;;;;;;;;5037279;28;20222;-84
2021/08/01 08:08:39;;;;;;;1.67;1.20;;;;;;;;;;5035253;28;20498;-84
2021/08/01 08:11:05;;;;;;;1.50;1.20;;;;;;;;;;5042966;28;20432;-83
2021/08/01 08:13:31;;;;;;;5.47;1.90;;;;;;;;;;5038463;28;20695;-82
2021/08/01 08:15:57;;;;;;;1.80;1.23;;;;;;;;;;5046315;28;20436;-82
2021/08/01 08:18:23;;;;;;;3.73;1.30;;;;;;;;;;5045250;28;20480;-84
2021/08/01 08:20:49;;;;;;;2.45;1.75;;;;;;;;;;5040299;28;20472;-85
2021/08/01 08:23:15;;;;;;;2.63;2.00;;;;;;;;;;5031004;28;20173;-84
2021/08/01 08:25:44;;;;;;;2.38;1.48;;;;;;;;;;5043150;28;20424;-83
2021/08/01 08:28:10;;;;;;;2.47;1.58;;;;;;;;;;5044940;28;20256;-84
2021/08/01 08:30:37;;;;;;;1.47;1.23;;;;;;;;;;5044796;28;20182;-83
2021/08/01 08:33:04;;;;;;;2.80;1.52;;;;;;;;;;5039431;28;20914;-84
2021/08/01 08:35:30;;;;;;;1.30;1.20;;;;;;;;;;5032876;28;20174;-84
2021/08/01 08:37:56;;;;;;;1.30;1.00;;;;;;;;;;5029953;28;20214;-84
2021/08/01 08:40:22;;;;;;;1.37;0.83;;;;;;;;;;5043965;28;20417;-84
2021/08/01 08:42:49;;;;;;;3.25;1.85;;;;;;;;;;5046611;28;20408;-84
2021/08/01 08:45:16;;;;;;;2.33;1.10;;;;;;;;;;5037077;28;20195;-85
2021/08/01 08:47:45;;;;;;;1.60;1.20;;;;;;;;;;5033618;28;20747;-84
2021/08/01 08:50:13;;;;;;;1.52;1.00;;;;;;;;;;5045347;28;20177;-83
2021/08/01 08:52:39;;;;;;;2.70;1.20;;;;;;;;;;5027179;28;20247;-84
2021/08/01 08:55:06;;;;;;;3.03;1.05;;;;;;;;;;5033819;28;20206;-84
2021/08/01 08:57:38;;;;;;;1.75;1.00;;;;;;;;;;5046016;28;20199;-84
2021/08/01 09:00:04;;;;;;;1.95;1.10;;;;;;;;;;5046900;28;20190;-84
2021/08/01 09:02:30;;;;;;;3.20;1.15;;;;;;;;;;5046364;28;20201;-84
2021/08/01 09:05:00;;;;;;;1.30;1.20;;;;;;;;;;5031780;28;20197;-84
2021/08/01 09:07:26;;;;;;;5.47;2.65;;;;;;;;;;5047063;28;20199;-84
2021/08/01 09:09:52;;;;;;;1.10;1.00;;;;;;;;;;5043426;28;20190;-84
2021/08/01 09:12:18;;;;;;;1.05;0.82;;;;;;;;;;5042231;28;20186;-83
2021/08/01 09:14:45;;;;;;;2.85;1.33;;;;;;;;;;5040421;28;20175;-84
2021/08/01 09:17:12;;;;;;;1.17;0.80;;;;;;;;;;5049586;28;20221;-84
2021/08/01 09:19:43;;;;;;;1.20;1.10;;;;;;;;;;5047319;28;20214;-84
2021/08/01 09:22:22;;;;;;;2.78;1.45;;;;;;;;;;5044412;28;20178;-84
2021/08/01 09:24:50;;;;;;;1.35;1.00;;;;;;;;;;5043723;28;20179;-85
2021/08/01 09:27:34;;;;;;;2.33;1.20;;;;;;;;;;5039147;28;20238;-84
2021/08/01 09:30:02;;;;;;;1.20;1.10;;;;;;;;;;5040782;28;20194;-84
2021/08/01 09:32:30;;;;;;;4.82;1.08;;;;;;;;;;5045151;28;20188;-84
2021/08/01 09:34:56;;;;;;;1.40;1.00;;;;;;;;;;5030956;28;20199;-84
2021/08/01 09:37:35;;;;;;;1.92;0.93;;;;;;;;;;5029845;28;20184;-84
2021/08/01 09:40:08;;;;;;;1.30;0.80;;;;;;;;;;5048817;28;20195;-83
2021/08/01 09:42:44;;;;;;;1.83;0.90;;;;;;;;;;5046296;28;20192;-84
2021/08/01 09:45:11;;;;;;;2.17;1.70;;;;;;;;;;5044963;28;20448;-84
2021/08/01 09:47:37;;;;;;;1.30;1.10;;;;;;;;;;5046892;28;20442;-84
2021/08/01 09:50:07;;;;;;;1.63;0.97;;;;;;;;;;5048222;28;20421;-84
2021/08/01 09:52:33;;;;;;;2.87;1.10;;;;;;;;;;5045111;28;20423;-84
2021/08/01 09:54:59;;;;;;;1.30;1.03;;;;;;;;;;5036019;28;20400;-83
2021/08/01 09:57:25;;;;;;;1.40;0.90;;;;;;;;;;5045183;28;20414;-84
2021/08/01 10:00:04;;;;;;;1.23;0.80;;;;;;;;;;5048004;28;20441;-85
2021/08/01 10:02:38;;;;;;;1.00;0.80;;;;;;;;;;5046319;28;20428;-83
2021/08/01 10:05:23;;;;;;;1.27;0.80;;;;;;;;;;5027949;28;20468;-84
2021/08/01 10:07:50;;;;;;;1.90;0.77;;;;;;;;;;5030769;28;20502;-83
2021/08/01 10:10:17;;;;;;;1.77;1.10;;;;;;;;;;5031267;28;20424;-83
2021/08/01 10:12:47;;;;;;;2.07;1.00;;;;;;;;;;5046543;28;20440;-84
2021/08/01 10:15:13;;;;;;;1.13;1.00;;;;;;;;;;5046677;28;20445;-83
2021/08/01 10:17:39;;;;;;;2.13;0.90;;;;;;;;;;5047568;28;20451;-85
2021/08/01 10:20:06;;;;;;;1.63;1.00;;;;;;;;;;5047804;28;20421;-85
2021/08/01 10:22:32;;;;;;;0.73;0.70;;;;;;;;;;5044378;28;20488;-84
2021/08/01 10:25:01;;;;;;;1.27;0.80;;;;;;;;;;5048224;28;20770;-84
2021/08/01 10:27:27;;;;;;;2.63;0.80;;;;;;;;;;5038011;28;20545;-83
2021/08/01 10:29:56;;;;;;;1.10;1.00;;;;;;;;;;5034790;28;20441;-84
2021/08/01 10:32:22;;;;;;;1.93;1.27;;;;;;;;;;5036452;28;20432;-84
2021/08/01 10:34:58;;;;;;;1.20;0.87;;;;;;;;;;5042728;28;20410;-84
2021/08/01 10:37:27;;;;;;;1.67;1.07;;;;;;;;;;5041912;28;20379;-83
2021/08/01 10:39:54;;;;;;;0.70;0.70;;;;;;;;;;5058556;28;20434;-84
2021/08/01 10:42:23;;;;;;;1.50;1.00;;;;;;;;;;5045986;28;20425;-84
2021/08/01 10:44:49;;;;;;;2.70;1.30;;;;;;;;;;5041306;28;20507;-84
2021/08/01 10:47:15;;;;;;;0.87;0.70;;;;;;;;;;5032703;28;20465;-84
2021/08/01 10:49:43;;;;;;;0.80;0.80;;;;;;;;;;5045635;28;20944;-84
2021/08/01 10:52:14;;;;;;;1.73;1.27;;;;;;;;;;5045483;28;20612;-84
2021/08/01 10:54:53;;;;;;;1.00;0.70;;;;;;;;;;5035414;28;20442;-84
2021/08/01 10:57:20;;;;;;;2.90;1.20;;;;;;;;;;5034415;28;20416;-85
2021/08/01 10:59:46;;;;;;;0.90;0.90;;;;;;;;;;5035650;28;20441;-84
2021/08/01 11:02:13;;;;;;;0.80;0.80;;;;;;;;;;5033326;28;20406;-85
2021/08/01 11:04:40;;;;;;;1.60;0.90;;;;;;;;;;5043172;28;20448;-83
2021/08/01 11:07:06;;;;;;;0.90;0.80;;;;;;;;;;5032690;28;20833;-84
2021/08/01 11:09:32;;;;;;;1.33;1.23;;;;;;;;;;5041587;28;20440;-84
2021/08/01 11:12:16;;;;;;;1.53;1.30;;;;;;;;;;5040937;28;20893;-83
2021/08/01 11:14:53;;;;;;;3.57;1.20;;;;;;;;;;5044334;28;20410;-85
2021/08/01 11:17:22;;;;;;;1.20;0.83;;;;;;;;;;5047676;28;20438;-85
2021/08/01 11:19:49;;;;;;;1.60;0.80;;;;;;;;;;5043812;28;20942;-85
2021/08/01 11:22:34;;;;;;;1.23;0.80;;;;;;;;;;5030124;28;20409;-83
2021/08/01 11:25:19;;;;;;;3.20;1.10;;;;;;;;;;5042666;28;20420;-83
2021/08/01 11:28:04;;;;;;;1.63;0.97;;;;;;;;;;5032268;28;20464;-84
2021/08/01 11:30:50;;;;;;;5.30;1.53;;;;;;;;;;5044493;28;20462;-83
2021/08/01 11:33:31;;;;;;;2.50;1.30;;;;;;;;;;5046129;28;20403;-83
2021/08/01 11:36:27;;;;;;;1.70;1.10;;;;;;;;;;5040592;28;20891;-84
2021/08/01 11:38:56;;;;;;;2.10;1.17;;;;;;;;;;5028589;28;20411;-85
2021/08/01 11:44:14;;;;;;;1.30;1.10;;;;;;;;;;5030021;28;20440;-83
2021/08/01 11:46:55;;;;;;;1.50;1.17;;;;;;;;;;5043128;28;20462;-83
2021/08/01 11:49:24;;;;;;;1.20;1.00;;;;;;;;;;5028687;28;20442;-83
2021/08/01 11:51:55;;;;;;;3.50;1.20;;;;;;;;;;5034858;28;20430;-85
2021/08/01 11:54:25;;;;;;;1.47;0.80;;;;;;;;;;5039902;28;20475;-84
2021/08/01 11:56:53;;;;;;;1.37;1.20;;;;;;;;;;5045268;28;20446;-85
2021/08/01 11:59:19;;;;;;;1.27;1.10;;;;;;;;;;5043881;28;20409;-84
2021/08/01 12:01:45;;;;;;;3.30;0.97;;;;;;;;;;5044726;28;20889;-83
2021/08/01 12:04:12;;;;;;;1.10;0.90;;;;;;;;;;5028469;28;20418;-84
2021/08/01 12:06:40;;;;;;;2.10;1.23;;;;;;;;;;5032322;28;20496;-82
2021/08/01 12:09:25;;;;;;;2.27;0.97;;;;;;;;;;5033945;28;20438;-82
2021/08/01 12:11:54;;;;;;;1.10;1.00;;;;;;;;;;5035950;28;20443;-84
2021/08/01 12:14:24;;;;;;;2.73;1.10;;;;;;;;;;5045476;28;20424;-84
2021/08/01 12:17:03;;;;;;;3.13;0.90;;;;;;;;;;5026983;28;20443;-84
2021/08/01 12:19:30;;;;;;;2.73;0.83;;;;;;;;;;5036646;28;20417;-84
2021/08/01 12:22:01;;;;;;;2.20;0.83;;;;;;;;;;5031373;28;20962;-84
2021/08/01 12:24:35;;;;;;;2.50;1.20;;;;;;;;;;5032920;28;20416;-85
2021/08/01 12:27:24;;;;;;;1.37;1.10;;;;;;;;;;5033056;28;20790;-82
2021/08/01 12:29:50;;;;;;;2.10;1.07;;;;;;;;;;5026051;28;20432;-85
2021/08/01 12:32:19;;;;;;;1.07;0.90;;;;;;;;;;5033097;28;20409;-84
2021/08/01 12:34:45;;;;;;;1.73;0.90;;;;;;;;;;5043346;28;20476;-85
2021/08/01 12:37:12;;;;;;;1.00;0.90;;;;;;;;;;5030331;28;20393;-84
2021/08/01 12:39:45;;;;;;;1.47;1.37;;;;;;;;;;5032419;28;20445;-83
2021/08/01 12:42:11;;;;;;;2.30;0.70;;;;;;;;;;5034269;28;20424;-83
2021/08/01 12:44:48;;;;;;;1.00;1.00;;;;;;;;;;5032793;28;20449;-84
2021/08/01 12:47:14;;;;;;;1.47;0.93;;;;;;;;;;5043747;28;20463;-85
2021/08/01 12:49:40;;;;;;;1.70;1.60;;;;;;;;;;5043360;28;20399;-83
2021/08/01 12:52:06;;;;;;;3.80;1.10;;;;;;;;;;5045971;28;20483;-84
2021/08/01 12:54:33;;;;;;;0.97;0.87;;;;;;;;;;5034215;28;20433;-84
2021/08/01 12:57:05;;;;;;;2.53;1.00;;;;;;;;;;5038192;28;20580;-85
2021/08/01 12:59:31;;;;;;;2.40;1.00;;;;;;;;;;5045859;28;20446;-85
2021/08/01 13:01:57;;;;;;;2.50;1.03;;;;;;;;;;5043335;28;20528;-84
2021/08/01 13:04:23;;;;;;;1.10;1.00;;;;;;;;;;5043214;28;20413;-83
2021/08/01 13:06:49;;;;;;;0.90;0.80;;;;;;;;;;5043901;28;20473;-83
2021/08/01 13:09:19;;;;;;;1.20;0.77;;;;;;;;;;5045063;28;20439;-85
2021/08/01 13:11:45;;;;;;;1.27;1.00;;;;;;;;;;5045320;28;20529;-85
2021/08/01 13:14:11;;;;;;;1.47;0.80;;;;;;;;;;5043700;28;20475;-84
2021/08/01 13:16:48;;;;;;;1.07;0.90;;;;;;;;;;5043434;28;20412;-83
2021/08/01 13:19:16;;;;;;;0.77;0.73;;;;;;;;;;5042759;28;20423;-84
2021/08/01 13:21:42;;;;;;;0.80;0.80;;;;;;;;;;5041900;28;20444;-84
2021/08/01 13:24:09;;;;;;;0.80;0.80;;;;;;;;;;5036770;28;20452;-83
2021/08/01 13:26:35;;;;;;;1.23;0.90;;;;;;;;;;5032105;28;20454;-84
2021/08/01 13:29:01;;;;;;;1.10;0.90;;;;;;;;;;5030856;28;20924;-84
2021/08/01 13:31:40;;;;;;;1.03;0.93;;;;;;;;;;5042645;28;20418;-84
2021/08/01 13:34:07;;;;;;;1.20;0.93;;;;;;;;;;5045183;28;20412;-85
2021/08/01 13:36:52;;;;;;;0.87;0.80;;;;;;;;;;5044181;28;20444;-85
2021/08/01 13:39:19;;;;;;;1.00;0.90;;;;;;;;;;5042407;28;20435;-84
2021/08/01 13:42:11;;;;;;;1.67;0.80;;;;;;;;;;5044318;28;20427;-85
2021/08/01 13:44:38;;;;;;;1.83;0.93;;;;;;;;;;5036991;28;20436;-85
2021/08/01 13:47:12;;;;;;;1.03;0.80;;;;;;;;;;5029177;28;20469;-83
2021/08/01 13:49:39;;;;;;;1.50;0.80;;;;;;;;;;5029846;28;20441;-84
2021/08/01 13:52:07;;;;;;;1.57;1.10;;;;;;;;;;5043204;28;20403;-83
2021/08/01 13:54:33;;;;;;;1.80;0.90;;;;;;;;;;5047074;28;20436;-82
2021/08/01 13:56:59;;;;;;;0.80;0.80;;;;;;;;;;5042372;28;20507;-84
2021/08/01 13:59:24;;;;;;;1.13;0.80;;;;;;;;;;5034679;28;20501;-84
2021/08/01 14:01:50;;;;;;;0.90;0.90;;;;;;;;;;5046119;28;20447;-86
2021/08/01 14:04:16;;;;;;;1.83;1.00;;;;;;;;;;5031870;28;20415;-83
2021/08/01 14:06:42;;;;;;;1.93;0.80;;;;;;;;;;5044495;28;20497;-85
2021/08/01 14:09:08;;;;;;;1.00;0.93;;;;;;;;;;5046010;28;20950;-84
2021/08/01 14:11:34;;;;;;;2.03;1.03;;;;;;;;;;5045392;28;20434;-82
2021/08/01 14:14:00;;;;;;;1.20;0.90;;;;;;;;;;5047734;28;20435;-83
2021/08/01 14:16:26;;;;;;;1.73;1.00;;;;;;;;;;5044712;28;20412;-83
2021/08/01 14:18:52;;;;;;;3.00;1.53;;;;;;;;;;5036776;28;20758;-84
2021/08/01 14:21:18;;;;;;;1.30;0.80;;;;;;;;;;5041423;28;20436;-83
2021/08/01 14:23:46;;;;;;;1.03;0.93;;;;;;;;;;5045851;28;20465;-82
2021/08/01 14:26:13;;;;;;;1.00;1.00;;;;;;;;;;5030655;28;20508;-83
2021/08/01 14:28:39;;;;;;;0.80;0.80;;;;;;;;;;5028328;28;20465;-84
2021/08/01 14:31:06;;;;;;;1.43;0.90;;;;;;;;;;5046910;28;20389;-85
2021/08/01 14:33:34;;;;;;;1.20;1.10;;;;;;;;;;5035373;28;20531;-85
2021/08/01 14:36:00;;;;;;;2.03;1.10;;;;;;;;;;5038980;28;20436;-83
2021/08/01 14:38:27;;;;;;;3.30;1.03;;;;;;;;;;5047368;28;20434;-83
2021/08/01 14:40:53;;;;;;;1.70;1.47;;;;;;;;;;5047223;28;20784;-83
2021/08/01 14:43:23;;;;;;;1.30;0.90;;;;;;;;;;5045633;28;20426;-83
2021/08/01 14:45:50;;;;;;;1.10;0.87;;;;;;;;;;5046320;28;20439;-82
2021/08/01 14:48:19;;;;;;;2.23;1.20;;;;;;;;;;5043987;28;20476;-82
2021/08/01 14:50:48;;;;;;;0.97;0.90;;;;;;;;;;5043695;28;20451;-84